createdAt,value
2018-06-16T00:00:31.913Z,99.90
2018-06-16T00:03:01.572Z,99.90
2018-06-16T00:05:30.731Z,99.90
2018-06-16T00:08:01.746Z,99.90
2018-06-16T00:10:31.325Z,99.90
2018-06-16T00:13:00.550Z,99.90
2018-06-16T00:15:29.675Z,99.90
2018-06-16T00:17:59.383Z,99.90
2018-06-16T00:20:28.358Z,99.90
2018-06-16T00:22:57.883Z,99.90
2018-06-16T00:25:26.811Z,99.90
2018-06-16T00:27:55.733Z,99.90
2018-06-16T00:30:24.712Z,99.90
2018-06-16T00:32:53.568Z,99.90
2018-06-16T00:35:22.469Z,99.90
2018-06-16T00:37:51.398Z,99.90
2018-06-16T00:40:21.082Z,99.90
2018-06-16T00:42:51.203Z,99.90
2018-06-16T00:45:20.943Z,99.90
2018-06-16T00:47:50.199Z,99.90
2018-06-16T00:50:19.702Z,99.90
2018-06-16T00:52:49.536Z,99.90
2018-06-16T00:55:18.716Z,99.90
2018-06-16T00:57:48.993Z,99.90
2018-06-16T01:00:19.162Z,99.90
2018-06-16T01:02:48.791Z,99.90
2018-06-16T01:05:18.500Z,99.90
2018-06-16T01:07:47.708Z,99.90
2018-06-16T01:10:16.903Z,99.90
2018-06-16T01:12:45.983Z,99.90
2018-06-16T01:15:16.571Z,99.90
2018-06-16T01:17:45.774Z,99.90
2018-06-16T01:20:14.971Z,99.90
2018-06-16T01:22:44.782Z,99.90
2018-06-16T01:25:13.692Z,99.90
2018-06-16T01:27:42.590Z,99.90
2018-06-16T01:30:11.967Z,99.90
2018-06-16T01:32:40.846Z,99.90
2018-06-16T01:35:09.936Z,99.90
2018-06-16T01:37:38.888Z,99.90
2018-06-16T01:40:07.798Z,99.90
2018-06-16T01:42:36.694Z,99.90
2018-06-16T01:45:05.626Z,99.90
2018-06-16T01:47:34.536Z,99.90
2018-06-16T01:50:04.429Z,99.90
2018-06-16T01:52:33.679Z,99.90
2018-06-16T01:55:02.883Z,99.90
2018-06-16T01:57:32.122Z,99.90
2018-06-16T02:00:01.378Z,99.90
2018-06-16T02:02:30.759Z,99.90
2018-06-16T02:05:00.490Z,99.90
2018-06-16T02:07:29.775Z,99.90
2018-06-16T02:09:58.908Z,99.90
2018-06-16T02:12:28.104Z,99.90
2018-06-16T02:14:57.291Z,99.90
2018-06-16T02:17:26.455Z,99.90
2018-06-16T02:19:55.827Z,99.90
2018-06-16T02:24:54.391Z,99.90
2018-06-16T02:27:23.647Z,99.90
2018-06-16T02:29:52.678Z,99.90
2018-06-16T02:32:21.935Z,99.90
2018-06-16T02:34:51.538Z,99.90
2018-06-16T02:37:20.572Z,99.90
2018-06-16T02:39:49.513Z,99.90
2018-06-16T02:42:18.722Z,99.90
2018-06-16T02:44:47.891Z,99.90
2018-06-16T02:47:17.120Z,99.90
2018-06-16T02:49:46.087Z,99.90
2018-06-16T02:52:15.008Z,99.90
2018-06-16T02:54:43.881Z,99.90
2018-06-16T02:57:12.804Z,99.90
2018-06-16T02:59:41.655Z,99.90
2018-06-16T03:02:10.568Z,99.90
2018-06-16T03:04:39.451Z,99.90
2018-06-16T03:07:08.514Z,99.90
2018-06-16T03:09:37.418Z,99.90
2018-06-16T03:12:06.543Z,99.90
2018-06-16T03:14:35.537Z,99.90
2018-06-16T03:17:04.505Z,99.90
2018-06-16T03:19:33.617Z,99.90
2018-06-16T03:22:02.775Z,99.90
2018-06-16T03:24:31.909Z,99.90
2018-06-16T03:27:01.068Z,99.90
2018-06-16T03:29:30.105Z,99.90
2018-06-16T03:31:59.243Z,99.80
2018-06-16T03:34:28.751Z,93.70
2018-06-16T03:36:57.873Z,85.80
2018-06-16T03:39:26.768Z,78.10
2018-06-16T03:41:55.672Z,70.70
2018-06-16T03:44:24.648Z,66.50
2018-06-16T03:46:53.711Z,68.50
2018-06-16T03:49:22.741Z,68.30
2018-06-16T03:51:51.930Z,66.10
2018-06-16T03:54:20.918Z,65.20
2018-06-16T03:56:50.103Z,65.20
2018-06-16T03:59:19.001Z,61.50
2018-06-16T04:01:47.921Z,59.10
2018-06-16T04:06:45.368Z,53.90
2018-06-16T04:09:14.263Z,52.60
2018-06-16T04:11:43.178Z,49.30
2018-06-16T04:14:12.365Z,47.20
2018-06-16T04:16:41.323Z,48.00
2018-06-16T04:19:10.241Z,47.50
2018-06-16T04:21:39.101Z,46.90
2018-06-16T04:24:08.018Z,47.30
2018-06-16T04:26:37.082Z,48.70
2018-06-16T04:29:06.096Z,50.30
2018-06-16T04:31:35.060Z,51.80
2018-06-16T04:34:03.983Z,53.00
2018-06-16T04:36:32.947Z,53.50
2018-06-16T04:39:02.099Z,53.60
2018-06-16T04:41:31.015Z,53.40
2018-06-16T04:43:59.878Z,54.30
2018-06-16T04:46:28.841Z,54.00
2018-06-16T04:48:57.740Z,53.20
2018-06-16T04:51:26.870Z,53.20
2018-06-16T04:53:55.874Z,52.70
2018-06-16T04:56:24.863Z,51.90
2018-06-16T04:58:54.019Z,51.60
2018-06-16T05:01:22.903Z,49.80
2018-06-16T05:03:51.755Z,50.30
2018-06-16T05:06:20.668Z,50.20
2018-06-16T05:08:49.579Z,49.40
2018-06-16T05:11:18.708Z,45.90
2018-06-16T05:13:47.603Z,47.70
2018-06-16T05:16:16.489Z,45.10
2018-06-16T05:18:45.700Z,43.80
2018-06-16T05:21:14.579Z,42.30
2018-06-16T05:23:43.514Z,41.10
2018-06-16T05:26:12.361Z,39.30
2018-06-16T05:28:41.270Z,37.10
2018-06-16T05:31:10.223Z,36.20
2018-06-16T05:33:39.110Z,36.50
2018-06-16T05:36:07.960Z,35.60
2018-06-16T05:38:36.921Z,34.00
2018-06-16T05:41:05.880Z,32.20
2018-06-16T05:43:35.617Z,29.30
2018-06-16T05:46:04.551Z,27.20
2018-06-16T05:48:33.458Z,25.90
2018-06-16T05:51:02.391Z,23.70
2018-06-16T05:53:31.258Z,21.70
2018-06-16T05:56:00.156Z,19.70
2018-06-16T05:58:29.098Z,18.80
2018-06-16T06:00:57.991Z,17.60
2018-06-16T06:03:26.853Z,15.70
2018-06-16T06:05:55.798Z,15.70
2018-06-16T06:08:24.666Z,15.70
2018-06-16T06:10:53.581Z,14.60
2018-06-16T06:13:22.500Z,14.10
2018-06-16T06:15:51.431Z,13.60
2018-06-16T06:18:20.428Z,12.90
2018-06-16T06:20:49.318Z,12.20
2018-06-16T06:23:18.305Z,11.40
2018-06-16T06:25:47.200Z,11.20
2018-06-16T06:28:16.100Z,10.80
2018-06-16T06:30:44.987Z,10.20
2018-06-16T06:33:13.887Z,9.80
2018-06-16T06:35:43.272Z,9.10
2018-06-16T06:38:12.223Z,8.80
2018-06-16T06:40:41.255Z,8.70
2018-06-16T06:43:10.278Z,8.10
2018-06-16T06:45:39.463Z,8.00
2018-06-16T06:48:08.503Z,8.30
2018-06-16T06:50:37.857Z,7.70
2018-06-16T06:53:07.247Z,7.40
2018-06-16T06:55:36.236Z,6.60
2018-06-16T06:58:06.809Z,6.90
2018-06-16T07:00:36.046Z,7.50
2018-06-16T07:03:05.745Z,6.80
2018-06-16T07:05:36.030Z,6.60
2018-06-16T07:08:06.308Z,6.30
2018-06-16T07:10:36.717Z,5.90
2018-06-16T07:13:06.005Z,5.40
2018-06-16T07:15:35.156Z,5.20
2018-06-16T07:18:06.244Z,5.00
2018-06-16T07:20:35.696Z,3.90
2018-06-16T07:23:05.065Z,2.90
2018-06-16T07:25:34.183Z,4.60
2018-06-16T07:28:03.392Z,5.50
2018-06-16T07:30:32.522Z,5.90
2018-06-16T07:33:01.804Z,5.70
2018-06-16T07:35:30.724Z,6.20
2018-06-16T07:37:59.681Z,7.10
2018-06-16T07:40:28.637Z,7.00
2018-06-16T07:42:57.511Z,6.60
2018-06-16T07:45:26.450Z,6.30
2018-06-16T07:47:55.322Z,7.10
2018-06-16T07:50:24.221Z,7.00
2018-06-16T07:52:53.084Z,7.70
2018-06-16T07:55:21.963Z,7.30
2018-06-16T07:57:50.876Z,6.50
2018-06-16T08:00:19.808Z,5.90
2018-06-16T08:02:48.750Z,6.20
2018-06-16T08:05:17.699Z,5.50
2018-06-16T08:07:46.636Z,4.50
2018-06-16T08:10:15.939Z,4.50
2018-06-16T08:12:45.160Z,4.60
2018-06-16T08:15:14.401Z,4.60
2018-06-16T08:17:43.776Z,4.30
2018-06-16T08:22:41.616Z,4.80
2018-06-16T08:25:10.769Z,4.70
2018-06-16T08:27:39.996Z,4.30
2018-06-16T08:30:09.824Z,4.50
2018-06-16T08:32:38.876Z,4.70
2018-06-16T08:35:08.066Z,4.60
2018-06-16T08:37:36.993Z,6.10
2018-06-16T08:40:05.982Z,6.20
2018-06-16T08:42:35.178Z,5.20
2018-06-16T08:45:04.327Z,5.10
2018-06-16T08:47:33.675Z,4.10
2018-06-16T08:50:02.663Z,3.40
2018-06-16T08:52:31.656Z,5.30
2018-06-16T08:55:00.554Z,5.70
2018-06-16T08:57:29.447Z,5.40
2018-06-16T08:59:58.356Z,5.00
2018-06-16T09:02:27.382Z,5.20
2018-06-16T09:04:56.263Z,4.70
2018-06-16T09:07:25.123Z,4.40
2018-06-16T09:09:54.039Z,5.30
2018-06-16T09:12:23.036Z,6.60
2018-06-16T09:14:52.013Z,6.10
2018-06-16T09:17:21.017Z,6.50
2018-06-16T09:19:49.882Z,7.00
2018-06-16T09:22:18.841Z,5.80
2018-06-16T09:24:47.751Z,5.60
2018-06-16T09:29:45.161Z,8.40
2018-06-16T09:32:14.092Z,9.80
2018-06-16T09:37:11.557Z,10.70
2018-06-16T09:39:40.463Z,13.00
2018-06-16T09:42:09.477Z,15.50
2018-06-16T09:44:38.508Z,16.10
2018-06-16T09:47:07.451Z,17.50
2018-06-16T09:49:36.450Z,18.10
2018-06-16T09:52:05.357Z,19.30
2018-06-16T09:54:34.281Z,19.10
2018-06-16T09:57:03.253Z,19.30
2018-06-16T09:59:32.243Z,18.90
2018-06-16T10:02:01.334Z,19.90
2018-06-16T10:04:30.326Z,21.90
2018-06-16T10:06:59.472Z,22.40
2018-06-16T10:09:28.426Z,21.70
2018-06-16T10:11:57.300Z,21.50
2018-06-16T10:14:26.149Z,21.40
2018-06-16T10:16:55.054Z,22.20
2018-06-16T10:19:23.916Z,22.30
2018-06-16T10:21:52.798Z,21.30
2018-06-16T10:24:21.673Z,21.80
2018-06-16T10:26:50.559Z,22.30
2018-06-16T10:29:19.443Z,21.30
2018-06-16T10:31:48.360Z,21.50
2018-06-16T10:34:17.269Z,22.70
2018-06-16T10:36:46.150Z,22.10
2018-06-16T10:39:14.995Z,20.70
2018-06-16T10:41:43.927Z,21.30
2018-06-16T10:44:12.866Z,21.40
2018-06-16T10:46:41.753Z,21.60
2018-06-16T10:49:10.681Z,21.70
2018-06-16T10:51:39.628Z,22.60
2018-06-16T10:54:08.530Z,22.80
2018-06-16T10:56:37.489Z,21.10
2018-06-16T10:59:06.597Z,21.30
2018-06-16T11:01:36.191Z,22.00
2018-06-16T11:04:05.382Z,22.70
2018-06-16T11:06:34.262Z,24.10
2018-06-16T11:09:03.300Z,23.70
2018-06-16T11:11:32.254Z,23.40
2018-06-16T11:14:01.175Z,22.70
2018-06-16T11:18:58.613Z,24.00
2018-06-16T11:21:27.582Z,22.60
2018-06-16T11:23:56.438Z,22.50
2018-06-16T11:26:25.316Z,22.10
2018-06-16T11:28:54.217Z,19.80
2018-06-16T11:31:23.109Z,18.70
2018-06-16T11:33:51.994Z,18.80
2018-06-16T11:36:20.962Z,18.70
2018-06-16T11:38:49.921Z,20.30
2018-06-16T11:41:19.011Z,20.80
2018-06-16T11:43:47.875Z,20.50
2018-06-16T11:46:16.783Z,20.40
2018-06-16T11:48:45.645Z,20.50
2018-06-16T11:51:14.555Z,20.70
2018-06-16T11:53:43.427Z,20.50
2018-06-16T11:56:12.302Z,20.20
2018-06-16T11:58:41.184Z,20.90
2018-06-16T12:01:10.044Z,20.90
2018-06-16T12:03:38.963Z,20.30
2018-06-16T12:06:07.929Z,20.10
2018-06-16T12:08:36.858Z,19.80
2018-06-16T12:11:05.755Z,19.70
2018-06-16T12:13:34.644Z,19.50
2018-06-16T12:16:03.806Z,19.70
2018-06-16T12:18:32.698Z,18.50
2018-06-16T12:21:01.591Z,18.30
2018-06-16T12:23:30.430Z,18.30
2018-06-16T12:25:59.308Z,18.10
2018-06-16T12:28:28.195Z,17.90
2018-06-16T12:30:57.092Z,18.30
2018-06-16T12:33:25.996Z,18.20
2018-06-16T12:38:24.330Z,18.30
2018-06-16T12:40:53.376Z,17.70
2018-06-16T12:43:22.744Z,17.80
2018-06-16T12:45:52.474Z,17.20
2018-06-16T12:48:21.696Z,17.90
2018-06-16T12:53:19.783Z,18.30
2018-06-16T12:55:48.724Z,19.10
2018-06-16T12:58:17.709Z,19.50
2018-06-16T13:00:46.815Z,19.60
2018-06-16T13:03:15.767Z,20.60
2018-06-16T13:05:44.670Z,20.60
2018-06-16T13:08:13.565Z,20.70
2018-06-16T13:10:42.422Z,20.50
2018-06-16T13:13:11.304Z,21.00
2018-06-16T13:15:40.194Z,20.50
2018-06-16T13:18:09.129Z,20.80
2018-06-16T13:20:38.033Z,21.80
2018-06-16T13:23:06.908Z,22.30
2018-06-16T13:25:35.824Z,22.40
2018-06-16T13:28:04.744Z,22.30
2018-06-16T13:30:33.752Z,22.00
2018-06-16T13:33:02.634Z,22.00
2018-06-16T13:35:31.554Z,21.90
2018-06-16T13:38:00.442Z,22.30
2018-06-16T13:42:58.018Z,22.20
2018-06-16T13:45:26.959Z,21.60
2018-06-16T13:47:55.906Z,20.80
2018-06-16T13:50:24.900Z,21.30
2018-06-16T13:52:53.785Z,22.00
2018-06-16T13:55:22.688Z,20.90
2018-06-16T13:57:51.639Z,21.10
2018-06-16T14:00:20.543Z,21.10
2018-06-16T14:02:50.265Z,21.00
2018-06-16T14:05:19.194Z,20.60
2018-06-16T14:07:48.232Z,20.50
2018-06-16T14:10:17.118Z,20.40
2018-06-16T14:12:46.107Z,20.50
2018-06-16T14:15:15.071Z,20.80
2018-06-16T14:17:44.026Z,20.10
2018-06-16T14:20:12.909Z,20.80
2018-06-16T14:22:41.808Z,20.30
2018-06-16T14:25:10.743Z,20.60
2018-06-16T14:27:39.604Z,20.00
2018-06-16T14:30:08.528Z,20.20
2018-06-16T14:32:37.433Z,20.00
2018-06-16T14:35:06.430Z,19.60
2018-06-16T14:37:35.324Z,19.70
2018-06-16T14:40:06.824Z,19.10
2018-06-16T14:42:36.457Z,19.40
2018-06-16T14:45:05.855Z,19.40
2018-06-16T14:47:34.724Z,20.20
2018-06-16T14:50:03.718Z,20.30
2018-06-16T14:52:32.721Z,20.50
2018-06-16T14:55:01.664Z,20.50
2018-06-16T14:57:30.572Z,20.90
2018-06-16T14:59:59.451Z,20.50
2018-06-16T15:02:28.411Z,21.40
2018-06-16T15:04:57.422Z,21.90
2018-06-16T15:10:09.567Z,21.40
2018-06-16T15:12:38.460Z,22.00
2018-06-16T15:15:07.359Z,22.10
2018-06-16T15:17:36.347Z,21.90
2018-06-16T15:20:06.896Z,22.40
2018-06-16T15:22:35.795Z,22.80
2018-06-16T15:25:04.958Z,22.40
2018-06-16T15:27:34.137Z,22.80
2018-06-16T15:30:03.127Z,21.60
2018-06-16T15:32:32.180Z,21.30
2018-06-16T15:35:01.113Z,21.50
2018-06-16T15:37:29.990Z,21.10
2018-06-16T15:39:58.992Z,21.30
2018-06-16T15:42:28.319Z,21.30
2018-06-16T15:44:57.235Z,20.70
2018-06-16T15:47:26.111Z,21.30
2018-06-16T15:49:54.989Z,20.60
2018-06-16T15:52:23.911Z,21.20
2018-06-16T15:54:52.895Z,21.30
2018-06-16T15:57:21.900Z,21.20
2018-06-16T15:59:50.764Z,21.80
2018-06-16T16:02:19.690Z,21.50
2018-06-16T16:04:48.553Z,22.00
2018-06-16T16:07:17.458Z,21.90
2018-06-16T16:09:46.314Z,22.20
2018-06-16T16:12:15.211Z,22.00
2018-06-16T16:14:44.090Z,22.50
2018-06-16T16:17:13.056Z,22.90
2018-06-16T16:19:42.035Z,22.70
2018-06-16T16:22:11.341Z,22.90
2018-06-16T16:24:40.188Z,23.20
2018-06-16T16:27:09.238Z,23.00
2018-06-16T16:29:38.160Z,23.00
2018-06-16T16:32:07.657Z,22.80
2018-06-16T16:34:36.559Z,22.50
2018-06-16T16:37:05.585Z,22.60
2018-06-16T16:39:35.396Z,21.90
2018-06-16T16:42:04.425Z,22.10
2018-06-16T16:44:33.448Z,22.20
2018-06-16T16:47:02.342Z,21.70
2018-06-16T16:49:31.230Z,22.10
2018-06-16T16:52:00.113Z,21.50
2018-06-16T16:54:29.076Z,21.30
2018-06-16T16:56:57.949Z,21.60
2018-06-16T16:59:26.936Z,21.90
2018-06-16T17:01:55.821Z,21.90
2018-06-16T17:04:24.751Z,21.90
2018-06-16T17:06:53.878Z,21.90
2018-06-16T17:09:22.791Z,21.90
2018-06-16T17:11:51.758Z,22.00
2018-06-16T17:14:20.899Z,22.50
2018-06-16T17:16:49.804Z,23.30
2018-06-16T17:19:19.687Z,23.80
2018-06-16T17:21:48.608Z,24.20
2018-06-16T17:24:17.612Z,24.00
2018-06-16T17:26:46.594Z,23.40
2018-06-16T17:29:15.494Z,24.00
2018-06-16T17:31:44.422Z,24.40
2018-06-16T17:34:13.358Z,24.40
2018-06-16T17:36:42.403Z,24.70
2018-06-16T17:39:11.707Z,24.70
2018-06-16T17:41:40.590Z,24.90
2018-06-16T17:44:09.519Z,25.30
2018-06-16T17:46:38.382Z,25.20
2018-06-16T17:49:07.270Z,25.60
2018-06-16T17:51:36.320Z,25.70
2018-06-16T17:54:06.363Z,25.60
2018-06-16T17:56:35.244Z,25.60
2018-06-16T17:59:04.231Z,25.80
2018-06-16T18:01:33.107Z,25.40
2018-06-16T18:04:02.100Z,25.60
2018-06-16T18:06:30.956Z,25.70
2018-06-16T18:08:59.832Z,25.90
2018-06-16T18:11:28.792Z,26.10
2018-06-16T18:13:57.695Z,26.10
2018-06-16T18:16:26.827Z,26.60
2018-06-16T18:18:55.806Z,26.60
2018-06-16T18:21:25.104Z,26.60
2018-06-16T18:23:54.028Z,26.80
2018-06-16T18:26:23.114Z,26.60
2018-06-16T18:28:52.107Z,26.80
2018-06-16T18:31:21.112Z,26.80
2018-06-16T18:33:50.008Z,27.00
2018-06-16T18:36:18.875Z,27.40
2018-06-16T18:38:47.840Z,27.50
2018-06-16T18:41:16.845Z,27.70
2018-06-16T18:43:46.111Z,27.90
2018-06-16T18:46:15.447Z,28.30
2018-06-16T18:48:44.913Z,28.50
2018-06-16T18:51:14.468Z,29.00
2018-06-16T18:53:43.811Z,29.20
2018-06-16T18:56:13.188Z,29.80
2018-06-16T18:58:42.450Z,29.70
2018-06-16T19:01:13.465Z,30.00
2018-06-16T19:03:42.692Z,30.20
2018-06-16T19:06:11.880Z,30.70
2018-06-16T19:08:40.971Z,31.10
2018-06-16T19:11:10.234Z,31.90
2018-06-16T19:13:39.551Z,32.40
2018-06-16T19:16:08.537Z,33.00
2018-06-16T19:18:37.449Z,33.50
2018-06-16T19:21:06.488Z,33.90
2018-06-16T19:23:35.472Z,34.30
2018-06-16T19:26:04.351Z,34.70
2018-06-16T19:28:33.247Z,35.10
2018-06-16T19:31:02.206Z,36.00
2018-06-16T19:33:31.078Z,35.80
2018-06-16T19:36:00.140Z,36.10
2018-06-16T19:38:29.243Z,36.50
2018-06-16T19:40:58.422Z,36.50
2018-06-16T19:43:27.831Z,37.40
2018-06-16T19:45:57.130Z,37.10
2018-06-16T19:48:26.054Z,37.20
2018-06-16T19:50:54.986Z,38.00
2018-06-16T19:53:23.993Z,38.30
2018-06-16T19:55:52.836Z,38.90
2018-06-16T19:58:21.805Z,39.90
2018-06-16T20:00:50.903Z,39.30
2018-06-16T20:03:20.111Z,39.20
2018-06-16T20:05:49.281Z,40.10
2018-06-16T20:08:18.469Z,40.60
2018-06-16T20:10:48.457Z,39.50
2018-06-16T20:13:17.449Z,39.60
2018-06-16T20:15:46.900Z,41.10
2018-06-16T20:18:16.234Z,39.50
2018-06-16T20:20:45.139Z,41.20
2018-06-16T20:23:14.054Z,41.20
2018-06-16T20:25:44.794Z,40.80
2018-06-16T20:28:15.508Z,41.00
2018-06-16T20:30:45.786Z,39.50
2018-06-16T20:33:14.946Z,38.10
2018-06-16T20:35:43.979Z,38.10
2018-06-16T20:38:13.171Z,38.10
2018-06-16T20:40:42.256Z,38.40
2018-06-16T20:43:11.546Z,38.90
2018-06-16T20:45:40.543Z,39.00
2018-06-16T20:48:09.437Z,39.10
2018-06-16T20:50:38.565Z,39.20
2018-06-16T20:53:07.643Z,39.60
2018-06-16T20:55:37.055Z,39.90
2018-06-16T20:58:07.257Z,39.80
2018-06-16T21:00:37.205Z,40.10
2018-06-16T21:03:06.995Z,40.90
2018-06-16T21:05:36.727Z,40.90
2018-06-16T21:08:06.537Z,40.90
2018-06-16T21:10:38.109Z,40.90
2018-06-16T21:13:08.648Z,41.30
2018-06-16T21:15:39.228Z,41.20
2018-06-16T21:18:08.509Z,41.70
2018-06-16T21:20:37.775Z,42.30
2018-06-16T21:23:06.687Z,42.80
2018-06-16T21:25:35.829Z,42.80
2018-06-16T21:28:04.752Z,42.80
2018-06-16T21:30:33.951Z,43.10
2018-06-16T21:33:02.843Z,43.30
2018-06-16T21:35:31.894Z,43.80
2018-06-16T21:38:00.753Z,44.00
2018-06-16T21:40:29.694Z,45.00
2018-06-16T21:42:58.576Z,45.70
2018-06-16T21:45:27.564Z,45.00
2018-06-16T21:47:56.644Z,46.00
2018-06-16T21:50:25.546Z,45.60
2018-06-16T21:52:54.458Z,45.50
2018-06-16T21:55:23.417Z,46.30
2018-06-16T21:57:52.299Z,45.40
2018-06-16T22:00:22.030Z,46.30
2018-06-16T22:02:50.944Z,46.60
2018-06-16T22:05:19.855Z,47.10
2018-06-16T22:07:48.763Z,47.70
2018-06-16T22:10:17.969Z,47.40
2018-06-16T22:12:47.183Z,47.30
2018-06-16T22:15:16.083Z,48.80
2018-06-16T22:17:45.250Z,47.80
2018-06-16T22:20:14.237Z,48.50
2018-06-16T22:22:43.134Z,49.50
2018-06-16T22:25:12.031Z,49.20
2018-06-16T22:27:41.007Z,49.10
2018-06-16T22:30:09.954Z,49.80
2018-06-16T22:32:38.888Z,49.80
2018-06-16T22:35:07.880Z,49.90
2018-06-16T22:37:36.880Z,49.90
2018-06-16T22:40:05.951Z,50.10
2018-06-16T22:42:34.850Z,50.10
2018-06-16T22:45:03.803Z,50.10
2018-06-16T22:47:33.089Z,50.60
2018-06-16T22:50:03.018Z,50.90
2018-06-16T22:52:31.881Z,51.00
2018-06-16T22:55:01.028Z,51.70
2018-06-16T22:57:30.121Z,52.30
2018-06-16T22:59:59.113Z,53.10
2018-06-16T23:02:28.310Z,54.30
2018-06-16T23:04:57.465Z,54.60
2018-06-16T23:07:26.452Z,55.30
2018-06-16T23:09:55.423Z,55.90
2018-06-16T23:12:24.351Z,55.90
2018-06-16T23:14:53.260Z,56.40
2018-06-16T23:17:22.145Z,56.60
2018-06-16T23:19:51.009Z,56.80
2018-06-16T23:22:19.979Z,57.00
2018-06-16T23:24:49.080Z,57.40
2018-06-16T23:27:18.110Z,58.00
2018-06-16T23:29:47.289Z,57.70
2018-06-16T23:32:16.172Z,58.10
2018-06-16T23:34:45.077Z,58.80
2018-06-16T23:37:14.281Z,59.00
2018-06-16T23:39:43.487Z,59.60
2018-06-16T23:42:12.567Z,59.80
2018-06-16T23:44:41.831Z,60.10
2018-06-16T23:47:10.920Z,60.10
2018-06-16T23:49:40.108Z,61.10
2018-06-16T23:52:08.987Z,61.00
2018-06-16T23:54:38.238Z,61.60
2018-06-16T23:57:07.404Z,61.90
2018-06-16T23:59:36.799Z,62.00
